Time;durP1;ratioP1;P1;durP2;ratioP2;P2;SDS_P1;SDS_P2;PMS_P1;PMS_P2;Temp;Humidity;BMP_temperature;BMP_pressure;BME280_temperature;BME280_humidity;BME280_pressure;Samples;Min_cycle;Max_cycle;Signal;HPM_P1;HPM_P2
2023/01/02 00:00:50;;;;;;;13.45;9.57;;;10.50;99.90;;;;;;5016802;28;20518;-71
2023/01/02 00:03:16;;;;;;;14.93;10.05;;;10.60;99.90;;;;;;5032982;28;20041;-71
2023/01/02 00:05:41;;;;;;;14.68;9.68;;;10.60;99.90;;;;;;5051115;28;20043;-71
2023/01/02 00:08:07;;;;;;;14.38;8.45;;;10.50;99.90;;;;;;5016778;28;20049;-71
2023/01/02 00:10:32;;;;;;;17.52;10.48;;;10.40;99.90;;;;;;5033050;28;20124;-71
2023/01/02 00:12:58;;;;;;;18.42;10.55;;;10.60;99.90;;;;;;5050671;28;20033;-71
2023/01/02 00:15:23;;;;;;;14.27;9.73;;;10.70;99.90;;;;;;5033046;28;20521;-71
2023/01/02 00:17:49;;;;;;;16.52;10.23;;;10.50;99.90;;;;;;5033286;28;20090;-71
2023/01/02 00:20:14;;;;;;;17.45;10.30;;;10.60;99.90;;;;;;5016788;28;20051;-71
2023/01/02 00:22:40;;;;;;;18.23;10.32;;;10.80;99.90;;;;;;5033087;28;20048;-72
2023/01/02 00:25:06;;;;;;;13.25;9.77;;;10.90;99.90;;;;;;5033198;28;20041;-71
2023/01/02 00:27:31;;;;;;;16.40;10.00;;;10.60;99.90;;;;;;5051111;28;20037;-71
2023/01/02 00:29:57;;;;;;;13.82;10.18;;;10.50;99.90;;;;;;5051227;28;20041;-72
2023/01/02 00:32:22;;;;;;;16.20;9.35;;;10.90;99.90;;;;;;5050707;28;20095;-72
2023/01/02 00:34:48;;;;;;;15.80;10.15;;;10.90;99.90;;;;;;5050939;28;20048;-71
2023/01/02 00:37:14;;;;;;;12.60;9.43;;;10.80;99.90;;;;;;5053504;28;20482;-71
2023/01/02 00:39:39;;;;;;;14.40;9.63;;;10.80;99.90;;;;;;5054503;28;20052;-71
2023/01/02 00:42:05;;;;;;;13.02;9.02;;;10.80;99.90;;;;;;5054359;28;20483;-71
2023/01/02 00:44:30;;;;;;;10.88;8.45;;;10.80;99.90;;;;;;5054242;28;20037;-72
2023/01/02 00:46:56;;;;;;;10.27;7.70;;;10.60;99.90;;;;;;5036529;28;20106;-72
2023/01/02 00:49:21;;;;;;;11.88;8.40;;;10.60;99.90;;;;;;5036746;28;20419;-72
2023/01/02 00:51:47;;;;;;;9.88;7.18;;;11.00;99.90;;;;;;5036418;28;20045;-72
2023/01/02 00:54:12;;;;;;;10.02;7.22;;;10.90;99.90;;;;;;5053874;28;20120;-72
2023/01/02 00:56:38;;;;;;;11.85;7.82;;;10.70;99.90;;;;;;5054106;28;20392;-72
2023/01/02 00:59:03;;;;;;;9.75;6.38;;;10.90;99.90;;;;;;5036514;28;20090;-72
2023/01/02 01:01:29;;;;;;;9.98;6.55;;;11.00;99.90;;;;;;5054242;28;20048;-72
2023/01/02 01:03:55;;;;;;;8.15;6.28;;;10.70;99.90;;;;;;5035796;28;20051;-72
2023/01/02 01:06:20;;;;;;;10.18;6.43;;;11.00;99.90;;;;;;5054040;28;20033;-72
2023/01/02 01:08:46;;;;;;;9.68;6.75;;;11.10;99.90;;;;;;5053946;28;20037;-72
2023/01/02 01:11:13;;;;;;;9.77;6.25;;;10.80;99.90;;;;;;5053854;28;20166;-71
2023/01/02 01:13:39;;;;;;;10.88;6.57;;;10.90;99.90;;;;;;5053653;28;20044;-71
2023/01/02 01:16:14;;;;;;;9.70;6.22;;;11.00;99.90;;;;;;5053975;28;20127;-71
2023/01/02 01:18:40;;;;;;;10.43;7.00;;;11.00;99.90;;;;;;5053787;28;20490;-71
2023/01/02 01:21:11;;;;;;;10.75;7.63;;;10.80;99.90;;;;;;5035657;28;20044;-71
2023/01/02 01:23:36;;;;;;;11.90;7.20;;;11.10;99.90;;;;;;5053210;28;20037;-71
2023/01/02 01:26:07;;;;;;;13.60;9.63;;;10.80;99.90;;;;;;5053880;28;20044;-71
2023/01/02 01:28:33;;;;;;;16.02;9.60;;;10.80;99.90;;;;;;5053619;28;20029;-71
2023/01/02 01:31:10;;;;;;;14.00;10.23;;;11.10;99.90;;;;;;5035701;28;20491;-72
2023/01/02 01:33:36;;;;;;;16.73;10.98;;;10.80;99.90;;;;;;5035326;28;20139;-72
2023/01/02 01:36:04;;;;;;;18.83;12.90;;;11.00;99.90;;;;;;5035505;28;20072;-72
2023/01/02 01:38:31;;;;;;;22.20;14.07;;;11.10;99.90;;;;;;5053860;28;20131;-72
2023/01/02 01:40:56;;;;;;;22.85;14.40;;;10.90;99.90;;;;;;5018980;28;20037;-72
2023/01/02 01:43:34;;;;;;;23.70;15.65;;;11.10;99.90;;;;;;5035221;28;20032;-72
2023/01/02 01:46:01;;;;;;;20.65;15.80;;;10.90;99.90;;;;;;5053269;28;20091;-71
2023/01/02 01:48:26;;;;;;;26.42;17.52;;;10.80;99.90;;;;;;5051913;28;20073;-71
2023/01/02 01:50:52;;;;;;;23.17;16.55;;;10.90;99.90;;;;;;5035288;28;20048;-72
2023/01/02 01:53:21;;;;;;;24.95;17.55;;;10.90;99.90;;;;;;5052893;28;20132;-71
2023/01/02 01:55:52;;;;;;;25.98;17.33;;;10.90;99.90;;;;;;5053210;28;20083;-71
2023/01/02 01:58:23;;;;;;;25.75;17.75;;;11.20;99.90;;;;;;5053128;28;20041;-71
2023/01/02 02:00:50;;;;;;;25.95;18.30;;;10.90;99.90;;;;;;5052976;28;20048;-72
2023/01/02 02:03:20;;;;;;;28.80;18.85;;;10.90;99.90;;;;;;5052483;28;20038;-71
2023/01/02 02:05:46;;;;;;;22.35;16.92;;;11.20;99.90;;;;;;5052790;28;20056;-71
2023/01/02 02:08:17;;;;;;;29.80;17.83;;;11.10;99.90;;;;;;5052958;28;20090;-71
2023/01/02 02:10:43;;;;;;;28.10;17.63;;;11.20;99.90;;;;;;5052792;28;20099;-72
2023/01/02 02:13:09;;;;;;;22.95;15.68;;;10.90;99.90;;;;;;5052510;28;20517;-72
2023/01/02 02:16:00;;;;;;;22.60;15.07;;;11.00;99.90;;;;;;5052651;28;20116;-71
2023/01/02 02:18:42;;;;;;;23.23;14.68;;;11.10;99.90;;;;;;5052867;28;20045;-71
2023/01/02 02:21:42;;;;;;;24.05;15.60;;;11.20;99.90;;;;;;5052607;28;20098;-71
2023/01/02 02:24:23;;;;;;;23.30;14.30;;;11.10;99.90;;;;;;5051965;28;20099;-71
2023/01/02 02:27:18;;;;;;;27.48;14.90;;;11.20;99.90;;;;;;5052588;28;20041;-71
2023/01/02 02:30:07;;;;;;;23.88;13.90;;;10.90;99.90;;;;;;5052496;28;20048;-71
2023/01/02 02:33:03;;;;;;;20.83;13.98;;;11.10;99.90;;;;;;5052210;28;20066;-71
2023/01/02 02:35:55;;;;;;;23.70;15.05;;;11.10;99.90;;;;;;5052358;28;20127;-72
2023/01/02 02:38:26;;;;;;;24.15;14.18;;;11.00;99.90;;;;;;5052169;28;20490;-71
2023/01/02 02:41:23;;;;;;;21.95;13.80;;;11.00;99.90;;;;;;5052010;28;20463;-71
2023/01/02 02:44:00;;;;;;;20.75;13.18;;;11.10;99.90;;;;;;5051714;28;20040;-72
2023/01/02 02:46:53;;;;;;;19.63;12.73;;;11.20;99.90;;;;;;5034239;28;20095;-71
2023/01/02 02:49:35;;;;;;;26.55;14.48;;;11.30;99.90;;;;;;5034415;28;20044;-71
2023/01/02 02:52:27;;;;;;;21.20;13.10;;;11.00;99.90;;;;;;5033961;28;20044;-71
2023/01/02 02:55:11;;;;;;;23.27;12.80;;;11.00;99.90;;;;;;5034302;28;20551;-71
2023/01/02 02:57:39;;;;;;;21.45;12.95;;;11.10;99.90;;;;;;5033996;28;20037;-71
2023/01/02 03:00:07;;;;;;;24.30;15.15;;;11.00;99.90;;;;;;5051506;28;20059;-71
2023/01/02 03:02:33;;;;;;;21.30;12.63;;;11.30;99.90;;;;;;5051362;28;20033;-71
2023/01/02 03:05:02;;;;;;;19.23;12.70;;;11.30;99.90;;;;;;5051696;28;20040;-71
2023/01/02 03:08:05;;;;;;;23.75;14.70;;;11.20;99.90;;;;;;5051528;28;20119;-71
2023/01/02 03:10:48;;;;;;;25.63;13.55;;;11.20;99.90;;;;;;5051896;28;20044;-71
2023/01/02 03:13:18;;;;;;;;;;;11.10;99.90;;;;;;5051841;28;20095;-72
2023/01/02 03:16:09;;;;;;;19.25;12.15;;;11.10;99.90;;;;;;5051541;28;20402;-73
2023/01/02 03:18:48;;;;;;;19.73;12.88;;;11.10;99.90;;;;;;5051746;28;20045;-71
2023/01/02 03:21:28;;;;;;;24.70;13.30;;;11.20;99.90;;;;;;5033594;28;20040;-71
2023/01/02 03:23:57;;;;;;;18.88;12.88;;;11.10;99.90;;;;;;5051211;28;20037;-71
2023/01/02 03:26:27;;;;;;;25.38;13.43;;;11.10;99.90;;;;;;5051367;28;20037;-71
2023/01/02 03:28:59;;;;;;;20.05;12.38;;;11.10;99.90;;;;;;5051390;28;20052;-71
2023/01/02 03:31:28;;;;;;;24.73;14.98;;;11.30;99.90;;;;;;5017208;28;20487;-71
2023/01/02 03:34:00;;;;;;;20.30;13.32;;;11.20;99.90;;;;;;5051161;28;20403;-71
2023/01/02 03:36:28;;;;;;;26.63;14.10;;;11.30;99.90;;;;;;5051471;28;20037;-71
2023/01/02 03:39:15;;;;;;;21.92;13.13;;;11.20;99.90;;;;;;5033449;28;20124;-71
2023/01/02 03:41:48;;;;;;;22.45;12.48;;;11.20;99.90;;;;;;5033575;28;20037;-71
2023/01/02 03:44:15;;;;;;;29.27;14.18;;;11.40;99.90;;;;;;5050967;28;20036;-71
2023/01/02 03:46:48;;;;;;;26.83;15.68;;;11.40;99.90;;;;;;5051434;28;20068;-71
2023/01/02 03:49:22;;;;;;;23.58;14.57;;;11.20;99.90;;;;;;5051286;28;20108;-71
2023/01/02 03:51:47;;;;;;;26.65;14.65;;;11.20;99.90;;;;;;5051416;28;20053;-71
2023/01/02 03:54:14;;;;;;;29.25;14.02;;;11.20;99.90;;;;;;5051015;28;20036;-71
2023/01/02 03:56:46;;;;;;;23.67;13.85;;;11.40;99.90;;;;;;5051198;28;20041;-71
2023/01/02 03:59:33;;;;;;;23.90;14.93;;;11.40;99.90;;;;;;5051268;28;20079;-72
2023/01/02 04:02:12;;;;;;;28.95;15.55;;;11.20;99.90;;;;;;5051156;28;20076;-71
2023/01/02 04:04:41;;;;;;;26.23;15.15;;;11.40;99.90;;;;;;5051007;28;20044;-71
2023/01/02 04:07:12;;;;;;;19.85;13.38;;;11.40;99.90;;;;;;5051226;28;20097;-71
2023/01/02 04:09:39;;;;;;;22.52;14.27;;;11.30;99.90;;;;;;5051195;28;20410;-71
2023/01/02 04:12:12;;;;;;;25.30;15.05;;;11.40;99.90;;;;;;5053566;28;20068;-71
2023/01/02 04:14:51;;;;;;;23.50;12.63;;;11.40;99.90;;;;;;5054942;28;20466;-71
2023/01/02 04:17:19;;;;;;;20.30;13.02;;;11.20;99.90;;;;;;5055068;28;20045;-71
2023/01/02 04:19:56;;;;;;;25.45;13.85;;;11.40;99.90;;;;;;5054848;28;20068;-71
2023/01/02 04:22:28;;;;;;;21.80;13.48;;;11.40;99.90;;;;;;5054500;28;20037;-71
2023/01/02 04:25:07;;;;;;;23.35;12.27;;;11.30;99.90;;;;;;5055074;28;20513;-71
2023/01/02 04:27:38;;;;;;;22.30;12.77;;;11.30;99.90;;;;;;5054869;28;20090;-71
2023/01/02 04:30:04;;;;;;;21.00;13.35;;;11.30;99.90;;;;;;5054767;28;20072;-71
2023/01/02 04:32:43;;;;;;;19.85;12.15;;;11.50;99.90;;;;;;5054420;28;20080;-72
2023/01/02 04:35:21;;;;;;;19.83;11.48;;;11.30;99.90;;;;;;5036751;28;20045;-72
2023/01/02 04:37:47;;;;;;;20.48;12.65;;;11.40;99.90;;;;;;5054844;28;20400;-71
2023/01/02 04:40:29;;;;;;;19.70;11.52;;;11.50;99.90;;;;;;5054661;28;20041;-71
2023/01/02 04:42:55;;;;;;;16.45;10.68;;;11.50;99.90;;;;;;5054260;28;20056;-71
2023/01/02 04:45:21;;;;;;;18.40;10.57;;;11.50;99.90;;;;;;5036293;28;20040;-72
2023/01/02 04:47:48;;;;;;;18.83;11.05;;;11.50;99.90;;;;;;5054293;28;20179;-72
2023/01/02 04:50:14;;;;;;;16.58;11.00;;;11.50;99.90;;;;;;5036613;28;20041;-72
2023/01/02 04:52:40;;;;;;;12.73;9.82;;;11.40;99.90;;;;;;5054318;28;20044;-72
2023/01/02 04:55:08;;;;;;;15.45;10.32;;;11.50;99.90;;;;;;5036283;28;20414;-72
2023/01/02 04:57:37;;;;;;;16.52;11.52;;;11.40;99.90;;;;;;5054252;28;20048;-72
2023/01/02 05:00:05;;;;;;;16.65;11.20;;;11.40;99.90;;;;;;5019846;28;20037;-72
2023/01/02 05:02:35;;;;;;;21.10;11.63;;;11.50;99.90;;;;;;5053599;28;20422;-71
2023/01/02 05:05:00;;;;;;;20.17;10.65;;;11.50;99.90;;;;;;5054122;28;20033;-71
2023/01/02 05:07:26;;;;;;;17.30;11.32;;;11.40;99.90;;;;;;5053921;28;20099;-71
2023/01/02 05:09:51;;;;;;;21.40;11.85;;;11.50;99.90;;;;;;5054083;28;20044;-72
2023/01/02 05:12:17;;;;;;;18.60;11.82;;;11.50;99.90;;;;;;5035860;28;20045;-72
2023/01/02 05:14:42;;;;;;;20.02;11.90;;;11.50;99.90;;;;;;5053744;28;20129;-72
2023/01/02 05:17:08;;;;;;;18.88;11.82;;;11.60;99.90;;;;;;5036077;28;20673;-72
2023/01/02 05:19:34;;;;;;;18.30;11.00;;;11.60;99.90;;;;;;5035739;28;20083;-72
2023/01/02 05:24:43;;;;;;;16.55;11.52;;;11.60;99.90;;;;;;5053599;28;20071;-72
2023/01/02 05:27:09;;;;;;;16.42;12.57;;;11.40;99.90;;;;;;5053606;28;20056;-72
2023/01/02 05:29:34;;;;;;;20.83;11.32;;;11.40;99.90;;;;;;5066694;28;20075;-72
2023/01/02 05:32:00;;;;;;;17.88;12.35;;;11.60;99.90;;;;;;5055591;28;20086;-72
2023/01/02 05:34:25;;;;;;;18.33;12.95;;;11.60;99.90;;;;;;5073370;28;20037;-73
2023/01/02 05:36:51;;;;;;;17.88;12.13;;;11.60;99.90;;;;;;5073627;28;20040;-72
2023/01/02 05:39:16;;;;;;;17.85;12.48;;;11.50;99.90;;;;;;5073556;28;20036;-72
2023/01/02 05:41:42;;;;;;;18.52;12.85;;;11.50;99.90;;;;;;5073302;28;20044;-73
2023/01/02 05:44:09;;;;;;;20.27;12.60;;;11.50;99.90;;;;;;5072781;28;20036;-72
2023/01/02 05:46:36;;;;;;;18.63;11.23;;;11.60;99.90;;;;;;5073496;28;20033;-72
2023/01/02 05:49:06;;;;;;;18.55;11.82;;;11.50;99.90;;;;;;5055417;28;20101;-72
2023/01/02 05:51:32;;;;;;;26.38;12.10;;;11.50;99.90;;;;;;5073357;28;20048;-72
2023/01/02 05:53:58;;;;;;;20.50;12.32;;;11.70;99.90;;;;;;5072784;28;20048;-72
2023/01/02 05:56:25;;;;;;;23.33;12.55;;;11.70;99.90;;;;;;5073138;28;20036;-73
2023/01/02 05:58:51;;;;;;;19.10;12.23;;;11.50;99.90;;;;;;5073151;28;20045;-72
2023/01/02 06:01:19;;;;;;;20.45;12.32;;;11.70;99.90;;;;;;5073281;28;20037;-71
2023/01/02 06:03:47;;;;;;;18.63;11.35;;;11.70;99.90;;;;;;5072764;28;20115;-71
2023/01/02 06:06:13;;;;;;;16.73;11.32;;;11.60;99.90;;;;;;5072926;28;20037;-72
2023/01/02 06:08:39;;;;;;;18.42;11.80;;;11.60;99.90;;;;;;5038704;28;20132;-72
2023/01/02 06:11:06;;;;;;;21.67;13.57;;;11.60;99.90;;;;;;5054784;28;20130;-72
2023/01/02 06:13:33;;;;;;;19.95;12.95;;;11.70;99.90;;;;;;5072430;28;20389;-72
2023/01/02 06:16:00;;;;;;;21.38;12.88;;;11.60;99.90;;;;;;5062019;28;20043;-72
2023/01/02 06:18:27;;;;;;;25.35;13.40;;;11.70;99.90;;;;;;5049901;28;20037;-72
2023/01/02 06:20:57;;;;;;;19.23;11.60;;;11.80;99.90;;;;;;5052668;28;20049;-72
2023/01/02 06:23:23;;;;;;;18.83;10.30;;;11.60;99.90;;;;;;5052489;28;20083;-73
2023/01/02 06:25:48;;;;;;;17.42;10.00;;;11.60;99.90;;;;;;5052558;28;20037;-73
2023/01/02 06:28:14;;;;;;;25.20;10.63;;;11.60;99.90;;;;;;5035064;28;20041;-73
2023/01/02 06:30:39;;;;;;;18.05;9.15;;;11.70;99.90;;;;;;5035027;28;20438;-73
2023/01/02 06:33:05;;;;;;;14.55;10.20;;;11.70;99.90;;;;;;5034395;28;20052;-73
2023/01/02 06:35:30;;;;;;;18.45;10.45;;;11.60;99.90;;;;;;5051919;28;20037;-72
2023/01/02 06:37:56;;;;;;;14.15;9.52;;;11.70;99.90;;;;;;5052507;28;20037;-72
2023/01/02 06:40:21;;;;;;;11.32;8.40;;;11.70;99.90;;;;;;5034393;28;20056;-72
2023/01/02 06:42:47;;;;;;;10.95;8.40;;;11.70;99.90;;;;;;5052234;28;20045;-72
2023/01/02 06:45:13;;;;;;;14.27;9.23;;;11.60;99.90;;;;;;5052151;28;20119;-72
2023/01/02 06:47:38;;;;;;;13.95;8.80;;;11.60;99.90;;;;;;5034542;28;20045;-73
2023/01/02 06:50:04;;;;;;;20.35;10.02;;;11.70;99.90;;;;;;5052611;28;20045;-75
2023/01/02 06:52:29;;;;;;;16.17;9.27;;;11.60;99.90;;;;;;5033864;28;20044;-75
2023/01/02 06:54:55;;;;;;;11.30;8.35;;;11.70;99.90;;;;;;5017730;28;20041;-75
2023/01/02 06:57:22;;;;;;;15.82;9.10;;;11.80;99.90;;;;;;5034598;28;20045;-75
2023/01/02 06:59:47;;;;;;;10.07;7.95;;;11.60;99.90;;;;;;5034439;28;20430;-76
2023/01/02 07:02:13;;;;;;;11.32;8.38;;;11.70;99.90;;;;;;5017728;28;20509;-76
2023/01/02 07:04:39;;;;;;;13.77;7.60;;;11.70;99.90;;;;;;5034280;28;20044;-76
2023/01/02 07:07:05;;;;;;;12.90;8.27;;;11.60;99.90;;;;;;5034997;28;20079;-75
2023/01/02 07:09:31;;;;;;;12.50;8.57;;;11.80;99.90;;;;;;5017739;28;20041;-75
2023/01/02 07:11:59;;;;;;;12.40;8.32;;;11.70;99.90;;;;;;5017519;28;20040;-75
2023/01/02 07:14:25;;;;;;;10.45;7.28;;;11.70;99.90;;;;;;5033693;28;20044;-75
2023/01/02 07:16:51;;;;;;;10.73;6.88;;;11.70;99.90;;;;;;5034235;28;20037;-75
2023/01/02 07:19:17;;;;;;;12.32;6.68;;;11.60;99.90;;;;;;5034083;28;20041;-76
2023/01/02 07:21:43;;;;;;;6.72;6.03;;;11.70;99.90;;;;;;5033859;28;20076;-76
2023/01/02 07:24:12;;;;;;;6.85;5.03;;;11.60;99.90;;;;;;5033559;28;20066;-76
2023/01/02 07:26:38;;;;;;;7.53;4.05;;;11.50;99.90;;;;;;5034129;28;20049;-75
2023/01/02 07:29:04;;;;;;;5.57;4.07;;;11.50;99.90;;;;;;5034032;28;20041;-76
2023/01/02 07:31:29;;;;;;;4.25;3.42;;;11.60;99.90;;;;;;5017352;28;20098;-75
2023/01/02 07:33:56;;;;;;;6.07;4.22;;;11.50;99.90;;;;;;5033514;28;20403;-76
2023/01/02 07:36:23;;;;;;;4.40;3.65;;;11.30;99.90;;;;;;5017570;28;20037;-76
2023/01/02 07:38:52;;;;;;;4.45;3.55;;;11.30;99.90;;;;;;5033765;28;20051;-76
2023/01/02 07:41:20;;;;;;;3.90;2.85;;;11.20;99.90;;;;;;5033994;28;20084;-76
2023/01/02 07:43:47;;;;;;;4.50;3.22;;;11.10;99.90;;;;;;5034371;28;20040;-76
2023/01/02 07:46:17;;;;;;;4.45;3.10;;;11.00;99.90;;;;;;5020596;28;20037;-76
2023/01/02 07:48:44;;;;;;;5.85;3.55;;;10.70;99.90;;;;;;5021708;28;20098;-76
2023/01/02 07:51:10;;;;;;;5.63;3.90;;;10.70;99.90;;;;;;5021223;28;20402;-76
2023/01/02 07:53:37;;;;;;;6.30;3.17;;;10.40;99.90;;;;;;5037346;28;20041;-75
2023/01/02 07:56:03;;;;;;;3.70;1.65;;;10.40;99.90;;;;;;5037982;28;20410;-76
2023/01/02 07:58:29;;;;;;;3.03;1.20;;;10.20;99.90;;;;;;5021421;28;20394;-76
2023/01/02 08:00:55;;;;;;;1.55;1.30;;;10.20;99.90;;;;;;5037881;28;20091;-76
2023/01/02 08:03:21;;;;;;;2.05;1.08;;;9.90;99.90;;;;;;5037585;28;20037;-76
2023/01/02 08:05:47;;;;;;;3.53;1.30;;;10.00;99.90;;;;;;5055431;28;20060;-75
2023/01/02 08:08:13;;;;;;;4.55;1.20;;;9.90;99.90;;;;;;5055657;28;20040;-76
2023/01/02 08:10:38;;;;;;;1.98;0.85;;;9.80;99.90;;;;;;5037409;28;20115;-76
2023/01/02 08:13:05;;;;;;;2.30;1.08;;;9.70;99.90;;;;;;5020983;28;20067;-76
2023/01/02 08:15:31;;;;;;;2.30;1.30;;;9.60;99.90;;;;;;5038122;28;20082;-76
2023/01/02 08:17:57;;;;;;;4.90;1.10;;;9.60;99.90;;;;;;5057922;28;20110;-77
2023/01/02 08:20:24;;;;;;;1.40;1.00;;;9.60;99.90;;;;;;5074975;28;20033;-76
2023/01/02 08:22:49;;;;;;;2.78;1.00;;;9.50;99.90;;;;;;5040084;28;20039;-77
2023/01/02 08:25:15;;;;;;;3.42;0.90;;;9.40;99.90;;;;;;5075026;28;20115;-78
2023/01/02 08:27:41;;;;;;;2.88;0.90;;;9.60;99.90;;;;;;5057015;28;20039;-77
2023/01/02 08:30:07;;;;;;;1.75;0.90;;;9.30;99.90;;;;;;5056914;28;20044;-77
2023/01/02 08:32:36;;;;;;;2.05;0.93;;;9.40;99.90;;;;;;5056928;28;20124;-77
2023/01/02 08:35:03;;;;;;;2.25;0.90;;;9.30;99.90;;;;;;5056756;28;20464;-76
2023/01/02 08:37:28;;;;;;;4.72;1.10;;;9.40;99.90;;;;;;5074940;28;20067;-76
2023/01/02 08:39:54;;;;;;;1.90;0.88;;;9.40;99.90;;;;;;5056996;28;20123;-76
2023/01/02 08:42:20;;;;;;;2.55;1.20;;;9.20;99.90;;;;;;5039909;28;20079;-77
2023/01/02 08:44:45;;;;;;;4.20;1.80;;;9.40;99.90;;;;;;5074380;28;20040;-75
2023/01/02 08:47:11;;;;;;;2.55;1.30;;;9.30;99.90;;;;;;5074519;28;20036;-75
2023/01/02 08:49:36;;;;;;;3.58;1.50;;;9.30;99.90;;;;;;5056381;28;20058;-75
2023/01/02 08:52:02;;;;;;;3.22;1.30;;;9.30;99.90;;;;;;5056396;28;20044;-76
2023/01/02 08:54:27;;;;;;;3.50;1.20;;;9.30;99.90;;;;;;5074244;28;20075;-75
2023/01/02 08:56:53;;;;;;;2.17;1.20;;;9.30;99.90;;;;;;5055782;28;20517;-75
2023/01/02 08:59:21;;;;;;;1.95;1.20;;;9.10;99.90;;;;;;5056378;28;20052;-75
2023/01/02 09:01:47;;;;;;;2.20;1.30;;;9.20;99.90;;;;;;5056193;28;20040;-76
2023/01/02 09:04:13;;;;;;;4.97;2.08;;;9.00;99.90;;;;;;5073781;28;20075;-76
2023/01/02 09:06:39;;;;;;;3.95;1.77;;;9.20;99.90;;;;;;5055999;28;20072;-75
2023/01/02 09:09:05;;;;;;;4.47;1.38;;;9.20;99.90;;;;;;5056095;28;20037;-75
2023/01/02 09:11:37;;;;;;;3.75;1.30;;;9.00;99.90;;;;;;5074202;28;20059;-75
2023/01/02 09:14:04;;;;;;;3.10;1.35;;;9.10;99.90;;;;;;5073680;28;20098;-75
2023/01/02 09:16:30;;;;;;;6.43;1.65;;;9.00;99.90;;;;;;5039408;28;20494;-75
2023/01/02 09:18:59;;;;;;;3.58;1.98;;;9.00;99.90;;;;;;5073933;28;20514;-76
2023/01/02 09:21:25;;;;;;;4.75;1.90;;;9.20;99.90;;;;;;5056106;28;20102;-75
2023/01/02 09:23:51;;;;;;;2.20;1.63;;;9.20;99.90;;;;;;5055491;28;20045;-75
2023/01/02 09:26:17;;;;;;;5.70;2.15;;;9.00;99.90;;;;;;5073843;28;20043;-75
2023/01/02 09:28:43;;;;;;;5.57;2.80;;;9.00;99.90;;;;;;5055821;28;20032;-75
2023/01/02 09:31:13;;;;;;;3.85;1.95;;;9.00;99.90;;;;;;5055788;28;20473;-75
2023/01/02 09:33:43;;;;;;;3.17;1.38;;;9.20;99.90;;;;;;5073448;28;20518;-75
2023/01/02 09:36:11;;;;;;;4.95;1.50;;;9.10;99.90;;;;;;5055800;28;20040;-75
2023/01/02 09:38:37;;;;;;;4.75;2.38;;;9.20;99.90;;;;;;5055697;28;20040;-75
2023/01/02 09:41:23;;;;;;;2.63;1.23;;;9.20;99.90;;;;;;5073501;28;20071;-75
2023/01/02 09:44:03;;;;;;;3.25;1.60;;;9.20;99.90;;;;;;5054959;28;20043;-75
2023/01/02 09:46:35;;;;;;;3.42;2.03;;;9.20;99.90;;;;;;5073678;28;20192;-75
2023/01/02 09:49:02;;;;;;;5.38;1.77;;;9.20;99.90;;;;;;5073496;28;20398;-75
2023/01/02 09:51:28;;;;;;;4.20;2.00;;;9.30;99.90;;;;;;5073337;28;20032;-75
2023/01/02 09:53:54;;;;;;;3.83;1.63;;;9.30;99.90;;;;;;5054921;28;20036;-75
2023/01/02 09:56:31;;;;;;;4.25;2.08;;;9.00;99.90;;;;;;5073422;28;20391;-75
2023/01/02 09:59:22;;;;;;;2.78;1.90;;;9.00;99.90;;;;;;5055270;28;20124;-75
2023/01/02 10:01:55;;;;;;;4.80;1.83;;;9.10;99.90;;;;;;5073132;28;20037;-75
2023/01/02 10:04:32;;;;;;;3.78;2.25;;;9.00;99.90;;;;;;5038168;28;20044;-75
2023/01/02 10:07:16;;;;;;;4.07;2.17;;;9.10;99.90;;;;;;5055110;28;20044;-75
2023/01/02 10:10:01;;;;;;;3.60;2.22;;;9.10;99.90;;;;;;5053842;28;20037;-75
2023/01/02 10:12:57;;;;;;;4.55;2.30;;;9.20;99.90;;;;;;5054677;28;20037;-75
2023/01/02 10:15:27;;;;;;;5.90;2.40;;;9.10;99.90;;;;;;5073079;28;20040;-75
2023/01/02 10:17:58;;;;;;;3.40;2.05;;;9.20;99.90;;;;;;5072831;28;20521;-76
2023/01/02 10:20:31;;;;;;;4.88;2.20;;;9.10;99.90;;;;;;5054809;28;20514;-75
2023/01/02 10:23:01;;;;;;;3.13;1.88;;;9.10;99.90;;;;;;5072455;28;20041;-75
2023/01/02 10:25:36;;;;;;;5.10;2.25;;;9.40;99.90;;;;;;5072532;28;20039;-75
2023/01/02 10:28:35;;;;;;;4.97;1.80;;;9.30;99.90;;;;;;5054624;28;20452;-74
2023/01/02 10:31:10;;;;;;;4.63;2.10;;;9.10;99.90;;;;;;5061421;28;20080;-75
2023/01/02 10:33:57;;;;;;;5.45;2.35;;;9.30;99.90;;;;;;5054442;28;20405;-75
2023/01/02 10:36:32;;;;;;;5.85;3.13;;;9.40;99.90;;;;;;5072571;28;20048;-75
2023/01/02 10:39:03;;;;;;;6.30;3.25;;;9.30;99.90;;;;;;5054592;28;20044;-75
2023/01/02 10:41:30;;;;;;;6.45;2.95;;;9.10;99.90;;;;;;5054353;28;20040;-75
2023/01/02 10:44:03;;;;;;;7.35;3.53;;;9.00;99.90;;;;;;5053779;28;20478;-75
2023/01/02 10:46:35;;;;;;;5.80;2.60;;;9.30;99.90;;;;;;5072369;28;20037;-75
2023/01/02 10:49:05;;;;;;;5.88;2.65;;;9.20;99.90;;;;;;5071989;28;20513;-75
2023/01/02 10:51:31;;;;;;;6.70;2.65;;;9.20;99.90;;;;;;5054122;28;20569;-75
2023/01/02 10:54:08;;;;;;;4.85;2.25;;;9.20;99.90;;;;;;5053716;28;20036;-75
2023/01/02 10:56:36;;;;;;;5.15;2.22;;;9.20;99.90;;;;;;5071912;28;20040;-75
2023/01/02 10:59:03;;;;;;;6.45;2.55;;;9.00;99.90;;;;;;5072195;28;20037;-75
2023/01/02 11:01:29;;;;;;;7.35;2.80;;;9.00;99.90;;;;;;5037334;28;20091;-74
2023/01/02 11:03:55;;;;;;;4.55;2.15;;;9.30;99.90;;;;;;5036893;28;20040;-75
2023/01/02 11:06:22;;;;;;;3.10;2.00;;;9.30;99.90;;;;;;5053869;28;20099;-75
2023/01/02 11:09:02;;;;;;;5.97;1.92;;;9.30;99.90;;;;;;5071928;28;20043;-75
2023/01/02 11:11:30;;;;;;;5.03;1.48;;;9.10;99.90;;;;;;5037217;28;20144;-75
2023/01/02 11:14:05;;;;;;;6.03;2.28;;;9.20;99.90;;;;;;5053389;28;20044;-75
2023/01/02 11:16:35;;;;;;;8.63;2.22;;;9.30;99.90;;;;;;5053682;28;20036;-74
2023/01/02 11:19:03;;;;;;;5.78;1.85;;;9.20;99.90;;;;;;5037434;28;20052;-74
2023/01/02 11:21:31;;;;;;;4.32;2.60;;;9.10;99.90;;;;;;5053204;28;20123;-75
2023/01/02 11:24:14;;;;;;;4.22;1.58;;;9.20;99.90;;;;;;5053636;28;20123;-76
2023/01/02 11:26:41;;;;;;;6.30;1.77;;;9.40;99.90;;;;;;5053846;28;20489;-76
2023/01/02 11:29:25;;;;;;;4.85;1.95;;;9.20;99.90;;;;;;5053595;28;20040;-76
2023/01/02 11:31:55;;;;;;;3.95;2.08;;;9.50;99.90;;;;;;5037111;28;20044;-73
2023/01/02 11:34:24;;;;;;;7.22;3.08;;;9.40;99.90;;;;;;5052522;28;20048;-73
2023/01/02 11:37:14;;;;;;;3.67;2.10;;;9.70;99.90;;;;;;5051418;28;20124;-73
2023/01/02 11:39:40;;;;;;;9.63;2.78;;;9.70;99.90;;;;;;5070973;28;20033;-73
2023/01/02 11:45:15;;;;;;;4.68;2.13;;;9.50;99.90;;;;;;5053061;28;20051;-73
2023/01/02 11:47:52;;;;;;;6.38;2.35;;;9.70;99.90;;;;;;5052071;28;20036;-73
2023/01/02 11:50:28;;;;;;;5.75;2.35;;;9.60;99.90;;;;;;5070979;28;20040;-73
2023/01/02 11:53:17;;;;;;;6.85;2.10;;;9.70;99.90;;;;;;5069017;28;20049;-73
2023/01/02 11:56:01;;;;;;;3.75;2.10;;;9.60;99.90;;;;;;5070782;28;20036;-74
2023/01/02 11:58:33;;;;;;;5.07;1.80;;;9.70;99.90;;;;;;5071322;28;20054;-73
2023/01/02 12:01:22;;;;;;;3.43;2.00;;;9.50;99.90;;;;;;5051858;28;20098;-73
2023/01/02 12:03:48;;;;;;;6.30;2.30;;;9.70;99.90;;;;;;5051732;28;20048;-72
2023/01/02 12:06:17;;;;;;;3.40;1.80;;;9.70;99.90;;;;;;5070871;28;20410;-72
2023/01/02 12:08:43;;;;;;;8.27;2.28;;;9.50;99.90;;;;;;5052351;28;20391;-72
2023/01/02 12:11:14;;;;;;;2.80;1.90;;;9.70;99.90;;;;;;5051656;28;20055;-72
2023/01/02 12:13:54;;;;;;;6.72;1.90;;;9.70;99.90;;;;;;5069272;28;20040;-73
2023/01/02 12:16:43;;;;;;;5.95;2.30;;;9.60;99.90;;;;;;5070865;28;20115;-73
2023/01/02 12:19:25;;;;;;;7.47;2.83;;;9.80;99.90;;;;;;5056009;28;20041;-73
2023/01/02 12:22:24;;;;;;;7.72;2.50;;;9.90;99.90;;;;;;5024224;28;20128;-73
2023/01/02 12:25:11;;;;;;;4.35;2.55;;;9.90;99.90;;;;;;5043209;28;20044;-73
2023/01/02 12:27:58;;;;;;;6.13;2.22;;;9.90;99.90;;;;;;5021821;28;20036;-72
2023/01/02 12:30:24;;;;;;;7.32;2.15;;;9.90;99.90;;;;;;5050818;28;20087;-73
2023/01/02 12:33:04;;;;;;;7.45;3.17;;;9.90;99.90;;;;;;5034857;28;20048;-73
2023/01/02 12:35:47;;;;;;;9.75;2.45;;;9.70;99.90;;;;;;5054696;28;20041;-73
2023/01/02 12:38:45;;;;;;;7.18;2.22;;;9.70;99.90;;;;;;5036987;28;20529;-73
2023/01/02 12:41:35;;;;;;;4.40;2.13;;;9.60;99.90;;;;;;5035869;28;20052;-73
2023/01/02 12:44:07;;;;;;;9.30;1.70;;;9.70;99.90;;;;;;5036368;28;20483;-74
2023/01/02 12:46:57;;;;;;;10.35;2.65;;;9.60;99.90;;;;;;5054498;28;20457;-73
2023/01/02 12:49:39;;;;;;;5.18;1.67;;;9.60;99.90;;;;;;5054745;28;20029;-73
2023/01/02 12:52:28;;;;;;;11.25;2.50;;;9.60;99.90;;;;;;5054477;28;20127;-73
2023/01/02 12:55:10;;;;;;;6.80;1.90;;;9.70;99.90;;;;;;5036378;28;20094;-73
2023/01/02 12:57:53;;;;;;;13.98;2.28;;;9.60;99.90;;;;;;5027285;28;20033;-73
2023/01/02 13:00:31;;;;;;;12.00;2.08;;;9.70;99.90;;;;;;5036421;28;20091;-72
2023/01/02 13:03:34;;;;;;;5.97;2.90;;;9.70;99.90;;;;;;5036090;28;20546;-72
2023/01/02 13:06:26;;;;;;;12.32;2.25;;;9.80;99.90;;;;;;5036160;28;20041;-72